createdAt,value
2023-01-13T04:41:58.162Z,1.70
2023-01-13T04:45:01.809Z,1.70
2023-01-13T04:48:05.344Z,1.21
2023-01-13T04:51:08.361Z,1.21
2023-01-13T04:54:11.527Z,1.28
2023-01-13T04:57:14.531Z,1.30
2023-01-13T05:00:19.637Z,1.31
2023-01-13T05:03:24.339Z,1.31
2023-01-13T05:06:27.012Z,1.33
2023-01-13T05:09:30.092Z,1.28
2023-01-13T05:12:59.457Z,1.23
2023-01-13T05:16:24.021Z,1.24
2023-01-13T05:19:32.140Z,1.24
2023-01-13T05:22:53.753Z,1.22
2023-01-13T05:25:56.676Z,1.17
2023-01-13T05:28:59.509Z,1.11
2023-01-13T05:32:02.692Z,1.12
2023-01-13T05:35:06.391Z,1.14
2023-01-13T05:38:09.411Z,1.17
2023-01-13T05:41:30.898Z,1.19
2023-01-13T05:44:33.584Z,1.14
2023-01-13T05:47:36.718Z,1.08
2023-01-13T05:50:39.902Z,1.05
2023-01-13T05:53:43.233Z,1.03
2023-01-13T05:56:45.884Z,1.04
2023-01-13T05:59:49.140Z,1.03
2023-01-13T06:02:52.276Z,1.06
2023-01-13T06:06:03.909Z,1.19
2023-01-13T06:09:06.535Z,1.31
2023-01-13T06:12:13.363Z,1.37
2023-01-13T06:15:15.934Z,1.29
2023-01-13T06:18:19.037Z,1.37
2023-01-13T06:21:21.881Z,1.32
2023-01-13T06:24:25.212Z,1.31
2023-01-13T06:27:29.163Z,1.27
2023-01-13T06:30:42.282Z,1.30
2023-01-13T06:33:55.843Z,1.26
2023-01-13T06:36:59.045Z,1.37
2023-01-13T06:40:05.653Z,1.43
2023-01-13T06:43:16.452Z,1.36
2023-01-13T06:46:19.655Z,1.40
2023-01-13T06:49:22.665Z,1.49
2023-01-13T06:52:25.411Z,1.60
2023-01-13T06:55:28.247Z,1.66
2023-01-13T06:58:30.805Z,1.59
2023-01-13T07:01:33.757Z,1.59
2023-01-13T07:04:36.621Z,1.70
2023-01-13T07:07:40.083Z,1.70
2023-01-13T07:10:42.727Z,1.77
2023-01-13T07:14:04.309Z,1.89
2023-01-13T07:17:06.958Z,1.99
2023-01-13T07:20:10.681Z,2.05
2023-01-13T07:23:14.707Z,2.13
2023-01-13T07:26:17.661Z,2.24
2023-01-13T07:29:20.598Z,2.38
2023-01-13T07:32:23.443Z,2.46
2023-01-13T07:35:26.344Z,2.58
2023-01-13T07:38:30.413Z,2.80
2023-01-13T07:41:51.540Z,2.93
2023-01-13T07:44:54.474Z,2.98
2023-01-13T07:47:57.125Z,3.18
2023-01-13T07:51:18.637Z,3.32
2023-01-13T07:54:25.491Z,3.49
2023-01-13T07:57:34.535Z,3.57
2023-01-13T08:00:40.349Z,3.58
2023-01-13T08:03:43.900Z,3.67
2023-01-13T08:06:46.522Z,3.74
2023-01-13T08:09:50.374Z,3.81
2023-01-13T08:13:11.625Z,3.77
2023-01-13T08:16:15.926Z,3.74
2023-01-13T08:19:18.613Z,3.72
2023-01-13T08:22:22.816Z,3.70
2023-01-13T08:25:27.148Z,3.74
2023-01-13T08:28:33.143Z,3.86
2023-01-13T08:31:36.005Z,3.71
2023-01-13T08:34:39.072Z,3.83
2023-01-13T08:37:42.118Z,3.99
2023-01-13T08:40:45.314Z,4.01
2023-01-13T08:43:48.062Z,4.06
2023-01-13T08:46:51.212Z,4.06
2023-01-13T08:49:54.595Z,4.06
2023-01-13T08:52:57.643Z,3.92
2023-01-13T08:56:00.555Z,3.85
2023-01-13T08:59:03.701Z,3.81
2023-01-13T09:02:12.912Z,3.80
2023-01-13T09:05:17.755Z,3.68
2023-01-13T09:08:20.620Z,3.64
2023-01-13T09:11:49.723Z,3.49
2023-01-13T09:14:52.811Z,3.53
2023-01-13T09:17:55.951Z,3.60
2023-01-13T09:20:59.663Z,3.54
2023-01-13T09:24:02.566Z,3.58
2023-01-13T09:27:05.266Z,3.59
2023-01-13T09:30:09.036Z,3.80
2023-01-13T09:33:30.495Z,4.00
2023-01-13T09:36:33.652Z,4.18
2023-01-13T09:39:37.161Z,4.22
2023-01-13T09:43:13.661Z,4.27
2023-01-13T09:46:47.105Z,4.35
2023-01-13T09:49:51.003Z,4.37
2023-01-13T09:52:53.972Z,4.18
2023-01-13T09:55:57.076Z,3.98
2023-01-13T09:58:59.856Z,4.12
2023-01-13T10:02:41.709Z,4.02
2023-01-13T10:05:52.137Z,3.97
2023-01-13T10:08:56.032Z,4.08
2023-01-13T10:12:19.154Z,4.08
2023-01-13T10:15:24.129Z,4.23
2023-01-13T10:19:05.533Z,4.38
2023-01-13T10:22:23.157Z,4.49
2023-01-13T10:25:49.110Z,4.44
2023-01-13T10:28:53.873Z,4.27
2023-01-13T10:31:58.733Z,4.40
2023-01-13T10:35:02.344Z,4.33
2023-01-13T10:38:05.255Z,4.50
2023-01-13T10:41:17.972Z,4.52
2023-01-13T10:44:24.672Z,4.30
2023-01-13T10:47:36.642Z,4.24
2023-01-13T10:50:40.683Z,4.17
2023-01-13T10:53:49.993Z,4.07
2023-01-13T10:57:35.939Z,4.08
2023-01-13T11:00:38.830Z,4.13
2023-01-13T11:03:43.522Z,4.10
2023-01-13T11:06:47.260Z,3.97
2023-01-13T11:10:19.805Z,4.06
2023-01-13T11:13:58.796Z,4.06
2023-01-13T11:17:32.825Z,3.94
2023-01-13T11:20:41.346Z,3.99
2023-01-13T11:23:49.261Z,3.95
2023-01-13T11:27:07.443Z,3.96
2023-01-13T11:30:37.011Z,3.83
2023-01-13T11:33:53.103Z,3.73
2023-01-13T11:37:00.526Z,3.83
2023-01-13T11:40:12.429Z,3.88
2023-01-13T11:43:33.462Z,4.00
2023-01-13T11:46:36.828Z,4.00
2023-01-13T11:49:39.998Z,3.97
2023-01-13T11:52:42.993Z,4.03
2023-01-13T11:55:51.822Z,4.28
2023-01-13T11:59:08.505Z,4.13
2023-01-13T12:02:27.039Z,4.13
2023-01-13T12:06:03.103Z,3.91
2023-01-13T12:09:32.864Z,3.98
2023-01-13T12:12:50.953Z,3.91
2023-01-13T12:16:05.195Z,3.90
2023-01-13T12:19:19.803Z,3.96
2023-01-13T12:22:28.093Z,3.90
2023-01-13T12:25:39.600Z,3.98
2023-01-13T12:28:54.583Z,4.01
2023-01-13T12:32:01.802Z,4.03
2023-01-13T12:35:42.275Z,3.94
2023-01-13T12:39:02.476Z,4.09
2023-01-13T12:42:36.442Z,4.00
2023-01-13T12:45:39.429Z,4.07
2023-01-13T12:48:54.723Z,4.03
2023-01-13T12:51:57.664Z,4.12
2023-01-13T12:55:03.670Z,4.14
2023-01-13T12:58:06.599Z,4.07
2023-01-13T13:01:17.047Z,4.07
2023-01-13T13:04:41.341Z,4.09
2023-01-13T13:08:06.937Z,4.29
2023-01-13T13:11:33.046Z,4.27
2023-01-13T13:14:41.979Z,4.38
2023-01-13T13:18:05.245Z,4.38
2023-01-13T13:21:09.940Z,4.36
2023-01-13T13:24:13.143Z,4.32
2023-01-13T13:27:25.007Z,4.28
2023-01-13T13:30:36.118Z,4.19
2023-01-13T13:34:10.789Z,4.21
2023-01-13T13:37:22.226Z,4.30
2023-01-13T13:40:45.285Z,4.40
2023-01-13T13:44:07.328Z,4.48
2023-01-13T13:47:10.527Z,4.49
2023-01-13T13:50:17.884Z,4.52
2023-01-13T13:53:22.475Z,4.48
2023-01-13T13:56:29.247Z,4.43
2023-01-13T13:59:33.864Z,4.39
2023-01-13T14:02:37.753Z,4.41
2023-01-13T14:05:56.285Z,4.41
2023-01-13T14:08:59.041Z,4.52
2023-01-13T14:12:06.747Z,4.52
2023-01-13T14:15:36.045Z,4.34
2023-01-13T14:18:46.285Z,4.48
2023-01-13T14:21:48.997Z,4.41
2023-01-13T14:24:58.606Z,4.43
2023-01-13T14:28:17.295Z,4.51
2023-01-13T14:31:20.877Z,4.59
2023-01-13T14:34:32.016Z,4.51
2023-01-13T14:37:41.773Z,4.58
2023-01-13T14:40:46.803Z,4.45
2023-01-13T14:43:51.759Z,4.56
2023-01-13T14:46:59.485Z,4.47
2023-01-13T14:50:04.642Z,4.50
2023-01-13T14:53:28.443Z,4.48
2023-01-13T14:56:50.836Z,4.51
2023-01-13T15:00:14.785Z,4.56
2023-01-13T15:03:21.129Z,4.62
2023-01-13T15:06:26.027Z,4.65
2023-01-13T15:09:41.972Z,4.69
2023-01-13T15:12:44.733Z,4.75
2023-01-13T15:15:52.080Z,4.53
2023-01-13T15:18:56.609Z,4.46
2023-01-13T15:21:59.480Z,4.44
2023-01-13T15:25:02.223Z,4.45
2023-01-13T15:28:05.425Z,4.48
2023-01-13T15:31:10.085Z,4.38
2023-01-13T15:34:13.020Z,4.42
2023-01-13T15:37:17.117Z,4.37
2023-01-13T15:40:31.635Z,4.31
2023-01-13T15:43:52.986Z,4.28
2023-01-13T15:46:57.056Z,4.32
2023-01-13T15:49:59.925Z,4.32
2023-01-13T15:53:03.712Z,4.31
2023-01-13T15:56:14.977Z,4.24
2023-01-13T15:59:22.025Z,4.28
2023-01-13T16:02:25.382Z,4.35
2023-01-13T16:05:28.328Z,4.27
2023-01-13T16:08:31.068Z,4.38
2023-01-13T16:11:34.020Z,4.30
2023-01-13T16:14:37.123Z,4.40
2023-01-13T16:17:40.316Z,4.49
2023-01-13T16:20:46.665Z,4.46
2023-01-13T16:23:50.984Z,4.45
2023-01-13T16:26:53.624Z,4.41
